Time;durP1;ratioP1;P1;durP2;ratioP2;P2;SDS_P1;SDS_P2;PMS_P1;PMS_P2;Temp;Humidity;BMP_temperature;BMP_pressure;BME280_temperature;BME280_humidity;BME280_pressure;Samples;Min_cycle;Max_cycle;Signal;HPM_P1;HPM_P2
2022/09/15 00:01:02;;;;;;;12.00;11.20;;;;;;;13.55;100.00;100155.13;5032951;28;21053;-43
2022/09/15 00:03:30;;;;;;;11.73;11.00;;;;;;;13.49;100.00;100154.19;5033115;28;21438;-41
2022/09/15 00:05:58;;;;;;;12.17;11.57;;;;;;;13.43;100.00;100165.00;5033322;28;20444;-40
2022/09/15 00:08:25;;;;;;;11.73;11.23;;;;;;;13.42;100.00;100169.53;5033205;28;21046;-40
2022/09/15 00:10:56;;;;;;;11.40;10.90;;;;;;;13.39;100.00;100156.59;5032779;28;20468;-40
2022/09/15 00:13:25;;;;;;;13.10;12.10;;;;;;;13.40;100.00;100150.22;5033121;28;20470;-42
2022/09/15 00:15:53;;;;;;;12.50;11.80;;;;;;;13.42;100.00;100144.63;5033046;28;20444;-42
2022/09/15 00:18:22;;;;;;;12.57;11.70;;;;;;;13.43;100.00;100148.94;5033325;28;20490;-42
2022/09/15 00:20:50;;;;;;;11.77;11.10;;;;;;;13.45;100.00;100149.53;5032413;28;20472;-41
2022/09/15 00:23:18;;;;;;;11.23;10.73;;;;;;;13.45;100.00;100152.19;5032697;28;20436;-42
2022/09/15 00:25:49;;;;;;;11.53;11.03;;;;;;;13.46;100.00;100151.97;5032966;28;20933;-44
2022/09/15 00:28:18;;;;;;;11.90;11.30;;;;;;;13.47;100.00;100142.88;5032775;28;20936;-40
2022/09/15 00:30:47;;;;;;;12.40;11.57;;;;;;;13.45;100.00;100150.34;5032275;28;20472;-40
2022/09/15 00:33:16;;;;;;;10.97;10.67;;;;;;;13.41;100.00;100145.69;5032760;28;20531;-43
2022/09/15 00:35:47;;;;;;;11.47;10.67;;;;;;;13.38;100.00;100152.28;5032847;28;20437;-41
2022/09/15 00:38:17;;;;;;;11.87;10.97;;;;;;;13.32;100.00;100155.09;5032727;28;20777;-43
2022/09/15 00:40:46;;;;;;;11.83;10.97;;;;;;;13.35;100.00;100165.34;5032061;28;20472;-41
2022/09/15 00:43:16;;;;;;;12.23;11.27;;;;;;;13.29;100.00;100157.16;5032666;28;20432;-43
2022/09/15 00:45:44;;;;;;;12.10;11.50;;;;;;;13.32;100.00;100158.56;5032539;28;20490;-41
2022/09/15 00:48:20;;;;;;;11.70;11.20;;;;;;;13.30;100.00;100155.31;5032468;28;20472;-40
2022/09/15 00:50:55;;;;;;;12.30;11.80;;;;;;;13.23;100.00;100146.56;5031870;28;20525;-41
2022/09/15 00:53:24;;;;;;;12.00;11.50;;;;;;;13.20;100.00;100166.56;5032009;28;20423;-41
2022/09/15 00:55:52;;;;;;;11.77;11.00;;;;;;;13.22;100.00;100158.31;5032586;28;20432;-41
2022/09/15 00:58:25;;;;;;;12.07;11.50;;;;;;;13.25;100.00;100165.88;5032460;28;20837;-43
2022/09/15 01:00:56;;;;;;;11.60;11.10;;;;;;;13.37;100.00;100153.34;5031837;28;20479;-40
2022/09/15 01:03:25;;;;;;;11.30;10.47;;;;;;;13.42;100.00;100155.34;5032065;28;20424;-39
2022/09/15 01:05:56;;;;;;;11.43;10.80;;;;;;;13.47;100.00;100145.56;5032047;28;20440;-41
2022/09/15 01:08:31;;;;;;;11.00;10.30;;;;;;;13.49;100.00;100150.69;5032383;28;20869;-41
2022/09/15 01:10:59;;;;;;;11.30;10.43;;;;;;;13.50;100.00;100142.41;5031646;28;21048;-41
2022/09/15 01:13:28;;;;;;;11.77;11.10;;;;;;;13.48;100.00;100147.19;5031906;28;20849;-42
2022/09/15 01:16:06;;;;;;;11.50;10.80;;;;;;;13.47;100.00;100148.22;5032100;28;20829;-40
2022/09/15 01:18:43;;;;;;;10.70;10.13;;;;;;;13.47;100.00;100150.91;5031956;28;20450;-41
2022/09/15 01:21:21;;;;;;;10.80;10.20;;;;;;;13.46;100.00;100146.63;5031391;28;20533;-40
2022/09/15 01:24:27;;;;;;;11.03;10.10;;;;;;;13.41;100.00;100141.13;5031897;28;20420;-41
2022/09/15 01:27:25;;;;;;;10.77;9.90;;;;;;;13.40;100.00;100136.81;5031889;28;20463;-40
2022/09/15 01:30:12;;;;;;;11.47;10.50;;;;;;;13.37;100.00;100131.94;5031240;28;20836;-40
2022/09/15 01:33:13;;;;;;;11.37;10.53;;;;;;;13.39;100.00;100127.16;5031481;28;20472;-40
2022/09/15 01:36:03;;;;;;;10.40;9.80;;;;;;;13.40;100.00;100133.31;5031922;28;20436;-41
2022/09/15 01:38:40;;;;;;;10.40;9.90;;;;;;;13.37;100.00;100128.44;5031896;28;20479;-40
2022/09/15 01:41:14;;;;;;;10.60;9.77;;;;;;;13.36;100.00;100124.09;5031132;28;20491;-42
2022/09/15 01:43:47;;;;;;;10.60;10.20;;;;;;;13.37;100.00;100125.75;5031745;28;20477;-41
2022/09/15 01:46:20;;;;;;;9.60;9.30;;;;;;;13.38;100.00;100125.50;5031636;28;20490;-40
2022/09/15 01:48:49;;;;;;;10.03;9.50;;;;;;;13.35;100.00;100123.28;5031708;28;20529;-41
2022/09/15 01:51:18;;;;;;;10.60;9.70;;;;;;;13.32;100.00;100120.28;5031212;28;20463;-40
2022/09/15 01:53:47;;;;;;;10.73;9.87;;;;;;;13.27;100.00;100116.41;5027772;28;20433;-40
2022/09/15 01:56:14;;;;;;;10.77;9.87;;;;;;;13.21;100.00;100121.84;5012082;28;20839;-41
2022/09/15 01:58:42;;;;;;;10.37;9.80;;;;;;;13.11;100.00;100113.59;5012002;28;20433;-45
2022/09/15 02:01:15;;;;;;;10.73;10.03;;;;;;;13.01;100.00;100116.78;5011499;28;20530;-42
2022/09/15 02:03:49;;;;;;;10.17;9.47;;;;;;;12.97;100.00;100114.75;5011742;28;20435;-42
2022/09/15 02:06:22;;;;;;;10.93;10.27;;;;;;;12.88;100.00;100116.13;5011744;28;20437;-41
2022/09/15 02:08:56;;;;;;;11.27;9.20;;;;;;;12.80;100.00;100106.56;5011237;28;21017;-41
2022/09/15 02:11:26;;;;;;;10.67;9.90;;;;;;;12.77;100.00;100115.03;5011788;28;20453;-45
2022/09/15 02:14:02;;;;;;;11.97;10.40;;;;;;;12.71;100.00;100108.75;5011596;28;20843;-45
2022/09/15 02:16:33;;;;;;;11.00;10.50;;;;;;;12.69;100.00;100113.47;5011640;28;20561;-41
2022/09/15 02:19:10;;;;;;;11.10;10.20;;;;;;;12.69;100.00;100113.47;5011232;28;20883;-41
2022/09/15 02:21:52;;;;;;;11.10;10.50;;;;;;;12.66;100.00;100111.25;5011687;28;20491;-41
2022/09/15 02:24:26;;;;;;;10.90;10.30;;;;;;;12.63;100.00;100116.25;5011526;28;20441;-40
2022/09/15 02:26:55;;;;;;;10.30;9.90;;;;;;;12.59;100.00;100107.88;5011675;28;20440;-40
2022/09/15 02:29:26;;;;;;;10.60;9.77;;;;;;;12.55;100.00;100106.66;5011179;28;20477;-42
2022/09/15 02:31:56;;;;;;;10.87;10.50;;;;;;;12.52;100.00;100106.28;5011449;28;20460;-42
2022/09/15 02:34:29;;;;;;;11.80;11.10;;;;;;;12.49;100.00;100109.41;5011420;28;20445;-40
2022/09/15 02:36:57;;;;;;;11.60;10.60;;;;;;;12.42;100.00;100114.88;5011606;28;20425;-41
2022/09/15 02:39:30;;;;;;;12.50;11.43;;;;;;;12.38;100.00;100111.00;5010882;28;20464;-41
2022/09/15 02:42:01;;;;;;;10.90;10.30;;;;;;;12.34;100.00;100109.78;5011312;28;20448;-39
2022/09/15 02:44:30;;;;;;;11.37;10.80;;;;;;;12.32;100.00;100111.88;5011222;28;20437;-40
2022/09/15 02:46:57;;;;;;;11.87;11.17;;;;;;;12.29;100.00;100114.19;5011546;28;20793;-40
2022/09/15 02:49:26;;;;;;;11.93;11.17;;;;;;;12.26;100.00;100107.44;5010759;28;20469;-41
2022/09/15 02:51:54;;;;;;;12.07;11.20;;;;;;;12.23;100.00;100107.88;5015144;28;20455;-39
2022/09/15 02:54:21;;;;;;;10.60;10.30;;;;;;;12.22;100.00;100108.91;5030668;28;20995;-41
2022/09/15 02:56:49;;;;;;;11.90;11.10;;;;;;;12.20;100.00;100111.00;5031240;28;20436;-42
2022/09/15 02:59:17;;;;;;;12.00;11.00;;;;;;;12.20;100.00;100106.47;5030694;28;20464;-39
2022/09/15 03:01:44;;;;;;;11.97;11.17;;;;;;;12.19;100.00;100115.50;5030961;28;20486;-39
2022/09/15 03:04:12;;;;;;;11.50;10.73;;;;;;;12.20;100.00;100108.31;5030773;28;20436;-39
2022/09/15 03:06:41;;;;;;;11.43;10.90;;;;;;;12.21;100.00;100110.75;5034104;28;20428;-41
2022/09/15 03:09:09;;;;;;;11.90;11.30;;;;;;;12.23;100.00;100109.72;5034097;28;20459;-39
2022/09/15 03:11:37;;;;;;;12.13;11.23;;;;;;;12.21;100.00;100113.44;5034449;28;20506;-41
2022/09/15 03:14:07;;;;;;;12.30;11.50;;;;;;;12.21;100.00;100110.75;5034231;28;20486;-40
2022/09/15 03:16:35;;;;;;;11.70;11.00;;;;;;;12.19;100.00;100114.69;5034342;28;20432;-42
2022/09/15 03:19:03;;;;;;;11.63;11.13;;;;;;;12.21;100.00;100115.31;5033924;28;20438;-40
2022/09/15 03:21:31;;;;;;;12.83;11.80;;;;;;;12.20;100.00;100114.50;5034021;28;20518;-40
2022/09/15 03:24:00;;;;;;;11.97;11.07;;;;;;;12.17;100.00;100125.63;5034105;28;20493;-41
2022/09/15 03:26:28;;;;;;;11.67;11.00;;;;;;;12.15;100.00;100125.03;5034193;28;20428;-42
2022/09/15 03:28:55;;;;;;;13.37;12.03;;;;;;;12.12;100.00;100121.97;5033592;28;20416;-39
2022/09/15 03:31:23;;;;;;;11.40;10.80;;;;;;;12.10;100.00;100132.06;5034249;28;20463;-42
2022/09/15 03:33:53;;;;;;;11.80;10.87;;;;;;;12.07;100.00;100121.81;5033664;28;20436;-43
2022/09/15 03:36:21;;;;;;;10.90;10.30;;;;;;;12.05;100.00;100110.53;5033970;28;20429;-41
2022/09/15 03:38:48;;;;;;;13.27;12.13;;;;;;;12.03;100.00;100118.78;5033698;28;20432;-40
2022/09/15 03:41:17;;;;;;;12.40;11.70;;;;;;;12.00;100.00;100111.22;5033182;28;20862;-41
2022/09/15 03:43:45;;;;;;;11.67;11.17;;;;;;;11.98;100.00;100110.59;5032708;28;20432;-41
2022/09/15 03:46:13;;;;;;;12.63;11.50;;;;;;;11.96;100.00;100107.34;5024146;28;20432;-40
2022/09/15 03:48:41;;;;;;;12.60;12.00;;;;;;;11.96;100.00;100104.66;5033639;28;20447;-41
2022/09/15 03:51:09;;;;;;;15.03;11.87;;;;;;;11.95;100.00;100111.03;5032736;28;20546;-39
2022/09/15 03:53:39;;;;;;;12.00;11.20;;;;;;;11.97;100.00;100114.31;5029557;28;20436;-41
2022/09/15 03:56:08;;;;;;;12.63;11.73;;;;;;;12.03;100.00;100115.28;5033565;28;20462;-39
2022/09/15 03:58:37;;;;;;;12.00;10.93;;;;;;;12.10;100.00;100119.50;5033521;28;20440;-40
2022/09/15 04:01:04;;;;;;;13.07;12.07;;;;;;;12.19;100.00;100130.72;5032896;28;21171;-39
2022/09/15 04:03:32;;;;;;;13.07;12.30;;;;;;;12.26;100.00;100118.13;5033300;28;20855;-40
2022/09/15 04:06:05;;;;;;;12.20;11.40;;;;;;;12.33;100.00;100102.00;5033559;28;20444;-41
2022/09/15 04:08:33;;;;;;;12.47;11.00;;;;;;;12.33;100.00;100107.38;5033411;28;20428;-41
2022/09/15 04:11:04;;;;;;;13.03;12.00;;;;;;;12.38;100.00;100110.16;5032698;28;20476;-40
2022/09/15 04:13:32;;;;;;;11.93;11.07;;;;;;;12.40;100.00;100108.09;5032965;28;20432;-39
2022/09/15 04:16:03;;;;;;;12.10;11.30;;;;;;;12.43;100.00;100097.75;5033050;28;20494;-41
2022/09/15 04:18:32;;;;;;;13.07;11.70;;;;;;;12.46;100.00;100107.19;5033285;28;20833;-39
2022/09/15 04:21:00;;;;;;;12.43;11.40;;;;;;;12.51;100.00;100110.03;5032664;28;21011;-41
2022/09/15 04:23:28;;;;;;;11.70;10.80;;;;;;;12.55;100.00;100109.34;5032829;28;20484;-40
2022/09/15 04:25:57;;;;;;;12.10;11.20;;;;;;;12.55;100.00;100105.84;5032880;28;20440;-42
2022/09/15 04:28:25;;;;;;;12.10;11.17;;;;;;;12.54;100.00;100106.91;5033186;28;20562;-41
2022/09/15 04:30:52;;;;;;;12.07;11.47;;;;;;;12.53;100.00;100106.09;5032139;28;20476;-41
2022/09/15 04:33:22;;;;;;;12.00;11.13;;;;;;;12.48;100.00;100113.97;5032848;28;20432;-41
2022/09/15 04:35:49;;;;;;;12.13;11.20;;;;;;;12.44;100.00;100107.44;5032948;28;20436;-42
2022/09/15 04:38:17;;;;;;;12.90;11.57;;;;;;;12.40;100.00;100124.94;5032796;28;20444;-41
2022/09/15 04:40:44;;;;;;;12.70;11.90;;;;;;;12.36;100.00;100117.63;5032088;28;20994;-41
2022/09/15 04:43:12;;;;;;;12.57;11.83;;;;;;;12.37;100.00;100116.56;5032701;28;20929;-46
2022/09/15 04:45:39;;;;;;;12.47;11.47;;;;;;;12.35;100.00;100122.13;5033005;28;20502;-40
2022/09/15 04:48:07;;;;;;;11.67;10.87;;;;;;;12.32;100.00;100119.91;5032763;28;20432;-41
2022/09/15 04:50:36;;;;;;;11.90;11.03;;;;;;;12.29;100.00;100112.34;5031974;28;20522;-42
2022/09/15 04:53:04;;;;;;;11.70;11.10;;;;;;;12.28;100.00;100121.38;5031962;28;21003;-41
2022/09/15 04:55:32;;;;;;;11.83;10.93;;;;;;;12.28;100.00;100115.22;5032618;28;20436;-40
2022/09/15 04:58:01;;;;;;;11.73;11.00;;;;;;;12.27;100.00;100116.28;5032586;28;20436;-41
2022/09/15 05:00:29;;;;;;;11.70;11.10;;;;;;;12.24;100.00;100114.03;5031709;28;20460;-42
2022/09/15 05:02:58;;;;;;;12.60;11.57;;;;;;;12.23;100.00;100115.91;5032079;28;20436;-40
2022/09/15 05:05:26;;;;;;;12.10;11.40;;;;;;;12.25;100.00;100126.34;5032138;28;20463;-40
2022/09/15 05:07:55;;;;;;;11.50;10.73;;;;;;;12.24;100.00;100120.22;5032423;28;20477;-40
2022/09/15 05:10:22;;;;;;;11.57;10.87;;;;;;;12.23;100.00;100123.91;5031554;28;21070;-42
2022/09/15 05:12:50;;;;;;;11.50;10.70;;;;;;;12.21;100.00;100121.44;5031784;28;20436;-40
2022/09/15 05:15:18;;;;;;;12.73;11.57;;;;;;;12.20;100.00;100122.50;5032118;28;20436;-42
2022/09/15 05:17:46;;;;;;;11.40;10.80;;;;;;;12.20;100.00;100132.38;5032186;28;20459;-44
2022/09/15 05:20:13;;;;;;;12.43;11.43;;;;;;;12.19;100.00;100133.41;5031603;28;21036;-42
2022/09/15 05:22:41;;;;;;;12.20;11.60;;;;;;;12.18;100.00;100131.78;5032080;28;20456;-41
2022/09/15 05:25:11;;;;;;;12.60;11.70;;;;;;;12.17;100.00;100124.81;5032099;28;20969;-40
2022/09/15 05:27:39;;;;;;;13.27;12.67;;;;;;;12.18;100.00;100134.47;5031415;28;20494;-40
2022/09/15 05:30:08;;;;;;;13.37;12.40;;;;;;;12.17;100.00;100125.63;5031494;28;21046;-43
2022/09/15 05:32:55;;;;;;;12.43;11.60;;;;;;;12.18;100.00;100137.13;5031814;28;20472;-44
2022/09/15 05:35:23;;;;;;;12.70;12.00;;;;;;;12.20;100.00;100135.88;5032059;28;20482;-43
2022/09/15 05:37:50;;;;;;;12.27;11.30;;;;;;;12.27;100.00;100135.00;5031792;28;20489;-42
2022/09/15 05:40:21;;;;;;;12.10;11.23;;;;;;;12.63;100.00;100141.13;5031358;28;20518;-44
2022/09/15 05:42:49;;;;;;;12.80;12.10;;;;;;;12.88;100.00;100133.00;5031427;28;20531;-40
2022/09/15 05:45:16;;;;;;;12.10;11.40;;;;;;;13.15;100.00;100139.66;5031955;28;20443;-42
2022/09/15 05:47:44;;;;;;;12.60;11.80;;;;;;;13.88;100.00;100135.84;5031670;28;20486;-44
2022/09/15 05:50:12;;;;;;;14.10;12.80;;;;;;;14.59;100.00;100138.25;5031171;28;20984;-45
2022/09/15 05:52:39;;;;;;;12.93;11.93;;;;;;;14.67;100.00;100137.88;5028152;28;20452;-44
2022/09/15 05:55:08;;;;;;;12.10;11.10;;;;;;;14.81;100.00;100136.56;5031565;28;20949;-41
2022/09/15 05:57:38;;;;;;;11.03;10.47;;;;;;;14.71;100.00;100150.59;5031551;28;20432;-43
2022/09/15 06:00:07;;;;;;;10.70;10.07;;;;;;;14.56;100.00;100161.00;5031027;28;20989;-41
2022/09/15 06:02:35;;;;;;;11.70;10.67;;;;;;;14.44;100.00;100164.75;5031375;28;20448;-43
2022/09/15 06:05:02;;;;;;;11.30;10.40;;;;;;;14.32;100.00;100154.00;5031518;28;20440;-43
2022/09/15 06:07:30;;;;;;;12.33;9.87;;;;;;;14.02;100.00;100146.09;5031609;28;20440;-44
2022/09/15 06:09:58;;;;;;;11.57;10.67;;;;;;;13.95;100.00;100137.34;5030957;28;20510;-42
2022/09/15 06:12:27;;;;;;;10.87;10.17;;;;;;;13.84;100.00;100138.16;5031275;28;20472;-41
2022/09/15 06:14:56;;;;;;;10.80;9.67;;;;;;;13.77;100.00;100140.94;5031556;28;20431;-44
2022/09/15 06:17:23;;;;;;;10.57;9.63;;;;;;;14.60;100.00;100146.06;5031569;28;20436;-42
2022/09/15 06:19:51;;;;;;;12.53;11.63;;;;;;;15.73;100.00;100143.34;5031023;28;20471;-44
2022/09/15 06:22:18;;;;;;;13.80;12.77;;;;;;;16.77;100.00;100141.59;5031146;28;20482;-42
2022/09/15 06:24:46;;;;;;;13.83;13.10;;;;;;;17.67;100.00;100149.03;5031426;28;20497;-42
2022/09/15 06:27:13;;;;;;;13.73;12.60;;;;;;;18.59;100.00;100137.75;5031550;28;20435;-45
2022/09/15 06:29:41;;;;;;;12.07;11.27;;;;;;;19.23;87.08;100143.66;5030894;28;20464;-41
2022/09/15 06:32:10;;;;;;;10.00;9.60;;;;;;;19.94;85.91;100138.28;5030828;28;20545;-42
2022/09/15 06:34:37;;;;;;;9.53;9.03;;;;;;;20.30;74.95;100132.56;5031316;28;20925;-43
2022/09/15 06:37:05;;;;;;;9.13;7.93;;;;;;;20.71;67.69;100133.22;5031067;28;20489;-43
2022/09/15 06:39:33;;;;;;;7.77;7.30;;;;;;;20.87;67.75;100142.91;5032756;28;20470;-43
2022/09/15 06:42:01;;;;;;;7.63;7.23;;;;;;;21.13;66.46;100143.63;5034711;28;20933;-45
2022/09/15 06:44:32;;;;;;;7.70;7.10;;;;;;;21.36;64.47;100136.69;5035031;28;20439;-43
2022/09/15 06:46:59;;;;;;;7.07;6.47;;;;;;;21.55;61.98;100134.09;5034979;28;20436;-43
2022/09/15 06:49:28;;;;;;;6.53;5.93;;;;;;;21.54;58.24;100136.00;5034381;28;20879;-42
2022/09/15 06:51:56;;;;;;;8.43;6.10;;;;;;;21.47;62.14;100133.59;5034591;28;20962;-46
2022/09/15 06:54:23;;;;;;;5.50;5.00;;;;;;;21.20;60.84;100133.28;5034595;28;20793;-43
2022/09/15 06:56:51;;;;;;;6.80;5.20;;;;;;;21.25;59.96;100141.38;5034678;28;20431;-41
2022/09/15 06:59:19;;;;;;;5.53;4.83;;;;;;;20.99;59.12;100131.75;5034212;28;20463;-44
2022/09/15 07:01:47;;;;;;;5.63;5.07;;;;;;;21.03;59.10;100129.28;5034373;28;20509;-41
2022/09/15 07:04:14;;;;;;;4.70;4.30;;;;;;;20.77;57.71;100136.72;5034183;28;20444;-46
2022/09/15 07:06:44;;;;;;;5.40;5.00;;;;;;;20.24;60.37;100136.34;5034718;28;20428;-42
2022/09/15 07:09:12;;;;;;;4.93;4.53;;;;;;;19.56;62.30;100145.84;5034135;28;20455;-43
2022/09/15 07:11:40;;;;;;;9.90;4.87;;;;;;;18.99;64.22;100143.31;5034363;28;20475;-44
2022/09/15 07:14:08;;;;;;;5.80;5.40;;;;;;;18.29;64.92;100153.75;5034192;28;20435;-42
2022/09/15 07:16:35;;;;;;;5.60;5.07;;;;;;;18.08;67.78;100150.94;5034302;28;20427;-42
2022/09/15 07:19:04;;;;;;;5.70;5.00;;;;;;;17.89;69.54;100146.22;5034003;28;20546;-42
2022/09/15 07:21:33;;;;;;;5.33;4.83;;;;;;;17.44;70.22;100155.50;5034181;28;20971;-44
2022/09/15 07:24:02;;;;;;;8.17;5.33;;;;;;;17.38;70.67;100151.13;5034031;28;20444;-45
2022/09/15 07:26:34;;;;;;;6.43;4.67;;;;;;;17.14;70.64;100144.44;5034344;28;20431;-43
2022/09/15 07:29:04;;;;;;;8.63;5.83;;;;;;;17.11;72.37;100155.75;5033681;28;20436;-40
2022/09/15 07:31:34;;;;;;;7.97;5.13;;;;;;;17.40;71.88;100151.72;5033746;28;20972;-43
2022/09/15 07:34:02;;;;;;;5.90;5.10;;;;;;;17.59;71.50;100152.19;5033871;28;20502;-43
2022/09/15 07:36:30;;;;;;;5.80;5.20;;;;;;;17.50;72.23;100149.09;5033869;28;20485;-42
2022/09/15 07:38:58;;;;;;;7.60;4.80;;;;;;;17.03;69.13;100165.06;5033592;28;20797;-40
2022/09/15 07:41:30;;;;;;;6.43;5.90;;;;;;;17.07;71.11;100149.22;5033725;28;21033;-40
2022/09/15 07:43:59;;;;;;;5.97;4.93;;;;;;;17.17;70.45;100162.81;5033516;28;20432;-40
2022/09/15 07:46:30;;;;;;;5.60;5.20;;;;;;;17.02;66.80;100166.13;5033968;28;20428;-43
2022/09/15 07:48:59;;;;;;;5.37;5.07;;;;;;;17.18;68.36;100159.03;5033532;28;20921;-42
2022/09/15 07:51:27;;;;;;;5.10;4.77;;;;;;;16.95;67.47;100162.81;5032769;28;20451;-40
2022/09/15 07:53:55;;;;;;;6.53;4.50;;;;;;;17.11;69.45;100170.00;5030905;28;20428;-41
2022/09/15 07:56:23;;;;;;;5.50;5.07;;;;;;;16.89;68.68;100165.72;5033510;28;20515;-44
2022/09/15 07:58:53;;;;;;;5.80;5.20;;;;;;;16.95;71.58;100168.22;5033246;28;20435;-41
2022/09/15 08:01:21;;;;;;;5.57;5.13;;;;;;;16.96;67.95;100171.72;5033635;28;20456;-42
2022/09/15 08:03:50;;;;;;;5.27;4.70;;;;;;;16.72;68.44;100171.19;5033183;28;20929;-43
2022/09/15 08:06:21;;;;;;;5.87;4.90;;;;;;;16.53;71.26;100175.19;5033493;28;20778;-40
2022/09/15 08:08:49;;;;;;;6.00;5.40;;;;;;;16.54;70.28;100184.94;5033072;28;20428;-40
2022/09/15 08:11:21;;;;;;;5.93;5.20;;;;;;;16.49;73.09;100184.81;5033436;28;20449;-41
2022/09/15 08:13:51;;;;;;;12.97;6.17;;;;;;;16.64;73.86;100189.63;5033077;28;20476;-41
2022/09/15 08:16:22;;;;;;;6.73;6.23;;;;;;;16.84;73.34;100181.81;5033357;28;20431;-42
2022/09/15 08:18:53;;;;;;;6.97;6.47;;;;;;;17.00;70.43;100187.13;5032849;28;20836;-40
2022/09/15 08:21:22;;;;;;;7.07;6.57;;;;;;;16.68;72.95;100188.06;5032863;28;20968;-41
2022/09/15 08:23:54;;;;;;;6.47;6.00;;;;;;;16.50;70.22;100189.97;5032813;28;20929;-40
2022/09/15 08:26:23;;;;;;;6.17;5.87;;;;;;;16.12;73.81;100203.41;5033140;28;20435;-41
2022/09/15 08:28:50;;;;;;;8.33;6.80;;;;;;;16.14;73.14;100195.88;5032550;28;20436;-40
2022/09/15 08:31:20;;;;;;;7.03;6.43;;;;;;;16.21;73.65;100188.47;5032772;28;20464;-41
2022/09/15 08:33:49;;;;;;;6.47;5.87;;;;;;;16.27;75.57;100197.44;5032519;28;20884;-40
2022/09/15 08:36:17;;;;;;;8.67;6.93;;;;;;;16.27;74.23;100195.56;5032996;28;20486;-42
2022/09/15 08:38:45;;;;;;;6.70;6.20;;;;;;;16.50;74.72;100189.97;5032940;28;20435;-42
2022/09/15 08:41:18;;;;;;;7.53;6.90;;;;;;;16.44;76.09;100198.22;5032098;28;20468;-41
2022/09/15 08:43:52;;;;;;;7.47;6.77;;;;;;;16.48;76.53;100200.16;5032448;28;20483;-40
2022/09/15 08:46:26;;;;;;;7.53;6.97;;;;;;;16.30;74.71;100189.69;5032565;28;20432;-42
2022/09/15 08:49:03;;;;;;;6.57;5.97;;;;;;;16.40;73.55;100199.75;5032056;28;20951;-40
2022/09/15 08:51:38;;;;;;;7.73;5.67;;;;;;;16.25;73.57;100207.59;5032435;28;20970;-42
2022/09/15 08:54:11;;;;;;;6.43;5.90;;;;;;;16.11;76.64;100200.94;5032106;28;20502;-40
2022/09/15 08:56:40;;;;;;;6.30;5.80;;;;;;;15.95;76.58;100199.88;5032412;28;20428;-43
2022/09/15 08:59:12;;;;;;;6.40;5.80;;;;;;;15.95;76.27;100205.25;5031847;28;20970;-41
2022/09/15 09:02:08;;;;;;;6.20;5.90;;;;;;;16.21;77.70;100209.19;5032195;28;20514;-41
2022/09/15 09:04:54;;;;;;;7.80;7.10;;;;;;;16.90;76.05;100203.19;5032027;28;20933;-41
2022/09/15 09:07:43;;;;;;;7.33;6.37;;;;;;;16.88;74.56;100199.91;5032241;28;20429;-42
2022/09/15 09:10:17;;;;;;;6.87;6.20;;;;;;;17.29;76.25;100203.91;5031793;28;21004;-43
2022/09/15 09:12:56;;;;;;;7.77;6.73;;;;;;;17.76;75.48;100200.59;5032031;28;20502;-40
2022/09/15 09:15:38;;;;;;;6.70;6.30;;;;;;;17.78;74.14;100196.56;5031968;28;20937;-42
2022/09/15 09:18:25;;;;;;;6.40;5.90;;;;;;;17.57;71.20;100202.84;5032008;28;20432;-43
2022/09/15 09:20:59;;;;;;;7.17;6.30;;;;;;;17.96;73.20;100193.47;5031556;28;20841;-40
2022/09/15 09:23:31;;;;;;;10.93;6.83;;;;;;;18.13;70.18;100193.31;5031621;28;20912;-41
2022/09/15 09:26:00;;;;;;;8.43;7.40;;;;;;;18.18;71.35;100196.91;5031717;28;20435;-43
2022/09/15 09:28:31;;;;;;;6.90;6.30;;;;;;;18.15;67.99;100193.91;5031654;28;20960;-43
2022/09/15 09:31:04;;;;;;;7.10;6.00;;;;;;;18.49;67.02;100199.78;5031150;28;20495;-43
2022/09/15 09:33:41;;;;;;;5.80;5.50;;;;;;;18.64;60.88;100200.69;5031352;28;21027;-43
2022/09/15 09:36:14;;;;;;;9.07;5.50;;;;;;;17.63;63.63;100185.66;5031546;28;20431;-41
2022/09/15 09:38:45;;;;;;;5.40;5.00;;;;;;;17.51;65.43;100193.03;5031845;28;20478;-43
2022/09/15 09:41:16;;;;;;;5.27;4.77;;;;;;;17.71;65.01;100209.47;5031257;28;20451;-40
2022/09/15 09:43:47;;;;;;;5.80;5.40;;;;;;;17.88;65.59;100202.06;5031578;28;20424;-43
2022/09/15 09:46:17;;;;;;;8.03;4.70;;;;;;;17.63;64.60;100201.81;5032098;28;20440;-40
2022/09/15 09:48:50;;;;;;;5.27;4.63;;;;;;;17.82;63.89;100192.28;5031693;28;20435;-40
2022/09/15 09:51:37;;;;;;;10.07;5.30;;;;;;;17.62;63.91;100195.59;5030862;28;20440;-40
2022/09/15 09:54:15;;;;;;;5.70;5.00;;;;;;;17.87;64.86;100199.59;5030058;28;20829;-40
2022/09/15 09:56:43;;;;;;;4.80;4.23;;;;;;;17.89;65.37;100198.28;5031605;28;20431;-41
2022/09/15 09:59:39;;;;;;;7.90;5.43;;;;;;;18.32;61.25;100191.03;5030962;28;20459;-41
2022/09/15 10:02:14;;;;;;;4.60;4.20;;;;;;;17.83;64.05;100196.59;5031240;28;20444;-42
2022/09/15 10:04:45;;;;;;;4.93;4.40;;;;;;;17.73;66.28;100196.53;5031490;28;20852;-40
2022/09/15 10:07:14;;;;;;;14.67;6.20;;;;;;;17.94;67.18;100184.03;5031515;28;20432;-41
2022/09/15 10:09:51;;;;;;;8.87;4.80;;;;;;;18.32;66.19;100188.31;5030931;28;20471;-39
2022/09/15 10:12:22;;;;;;;7.33;4.47;;;;;;;18.62;61.48;100183.97;5031316;28;20458;-40
2022/09/15 10:14:53;;;;;;;7.13;4.60;;;;;;;18.98;62.92;100182.22;5033918;28;20528;-40
2022/09/15 10:17:23;;;;;;;5.10;4.50;;;;;;;18.29;60.33;100200.47;5035451;28;20458;-41
2022/09/15 10:19:54;;;;;;;6.00;5.60;;;;;;;16.49;66.33;100254.78;5035037;28;20517;-40
2022/09/15 10:22:25;;;;;;;23.80;21.67;;;;;;;14.82;85.21;100258.97;5035092;28;20517;-40
2022/09/15 10:24:53;;;;;;;25.10;23.90;;;;;;;14.29;95.29;100254.53;5035562;28;20436;-40
2022/09/15 10:27:29;;;;;;;16.47;15.63;;;;;;;13.85;100.00;100252.38;5035407;28;20491;-40
2022/09/15 10:29:59;;;;;;;11.67;10.97;;;;;;;13.80;100.00;100254.91;5034874;28;20517;-40
2022/09/15 10:32:29;;;;;;;8.80;8.20;;;;;;;13.83;100.00;100249.91;5034572;28;20468;-39
2022/09/15 10:35:04;;;;;;;7.00;6.70;;;;;;;14.04;100.00;100245.88;5035224;28;20467;-41
2022/09/15 10:37:36;;;;;;;7.83;7.50;;;;;;;14.44;100.00;100239.88;5035221;28;20438;-40
2022/09/15 10:40:22;;;;;;;7.30;6.67;;;;;;;14.74;100.00;100236.00;5034514;28;20479;-40
2022/09/15 10:42:53;;;;;;;5.27;4.87;;;;;;;14.82;100.00;100232.13;5034548;28;20519;-40
2022/09/15 10:45:26;;;;;;;6.43;4.67;;;;;;;14.89;100.00;100230.13;5034821;28;21011;-39
2022/09/15 10:48:19;;;;;;;5.63;5.23;;;;;;;15.34;100.00;100228.38;5034891;28;20456;-39
2022/09/15 10:50:55;;;;;;;5.53;5.03;;;;;;;15.48;100.00;100231.59;5034365;28;20472;-40
2022/09/15 10:53:33;;;;;;;6.53;4.30;;;;;;;15.37;96.73;100233.25;5030962;28;20475;-39
2022/09/15 10:56:09;;;;;;;4.57;4.17;;;;;;;15.60;99.30;100232.34;5034671;28;20439;-41
2022/09/15 10:58:50;;;;;;;5.27;4.37;;;;;;;15.78;97.91;100232.16;5034760;28;20821;-40
2022/09/15 11:01:45;;;;;;;7.47;4.43;;;;;;;15.94;95.67;100234.03;5034478;28;20444;-40
2022/09/15 11:04:34;;;;;;;6.03;4.40;;;;;;;15.58;91.70;100225.59;5034627;28;20436;-41
2022/09/15 11:07:12;;;;;;;8.17;3.70;;;;;;;15.64;91.22;100230.00;5034671;28;20432;-40
2022/09/15 11:09:44;;;;;;;4.27;3.60;;;;;;;15.59;88.90;100219.19;5034076;28;20470;-40
2022/09/15 11:12:23;;;;;;;5.60;3.90;;;;;;;15.43;91.34;100223.41;5034083;28;20452;-40
2022/09/15 11:15:14;;;;;;;6.80;3.80;;;;;;;15.23;89.40;100229.22;5034306;28;21004;-40
2022/09/15 11:17:55;;;;;;;5.23;4.77;;;;;;;15.43;91.70;100231.47;5034306;28;20972;-44
2022/09/15 11:20:41;;;;;;;5.90;4.40;;;;;;;15.59;87.17;100224.56;5033559;28;20992;-42
2022/09/15 11:23:18;;;;;;;6.93;4.90;;;;;;;15.88;85.96;100218.88;5034345;28;20428;-40
2022/09/15 11:25:52;;;;;;;8.00;4.50;;;;;;;16.19;83.67;100206.72;5033052;28;20436;-41
2022/09/15 11:28:23;;;;;;;7.57;4.20;;;;;;;16.49;82.97;100209.03;5034168;28;20424;-42
2022/09/15 11:30:56;;;;;;;6.03;4.23;;;;;;;16.54;78.45;100209.16;5033247;28;20472;-40